To NAV CANADA Home Page Login to a new session Search on AWWS site Feedback and Comments Disclaimer Vers la page française équivalente Tips FAQ What's new on the site To the Forecasts and Observations / NOTAM section To "File a Flight Plan" website Publications and other links Update of the User's profile FIC Telephone Numbers My Weather Data Folder Route Weather Data Regional Weather Data Local Weather Data To the Forecasts and Observations / NOTAM section
Request Generated 12/04/2016 at 22:21:21 UTC . Weather information available at that time is displayed.

METAR/TAF

RED DEER REGIONAL/AB    

METAR CYQF 042200Z 31012KT 15SM BKN130 BKN220 M05/M12 A2965 RMK
AC6CI1 SLP091=
METAR CYQF 042100Z 32008KT 15SM FEW020 BKN120 M05/M11 A2964 RMK
SC1AC6 SLP087=
METAR CYQF 042000Z 33009KT 15SM FEW020 BKN120 M04/M10 A2964 RMK
SC1AC6 SLP085=

TAF CYQF 041744Z 0418/0506 28005KT P6SM FEW020 BKN080
FM042100 33010KT P6SM SCT140
FM050200 35012KT P6SM SCT020 TEMPO 0502/0506 BKN020
RMK NXT FCST BY 050000Z=
Your time UTC time
Weather data provided by Environment Canada and NAV CANADA